createdAt,value
2023-03-12T00:01:59.791Z,47.35
2023-03-12T00:04:27.535Z,47.59
2023-03-12T00:06:54.359Z,47.71
2023-03-12T00:09:21.286Z,47.71
2023-03-12T00:11:48.158Z,47.79
2023-03-12T00:14:15.462Z,47.63
2023-03-12T00:16:42.271Z,47.77
2023-03-12T00:19:12.781Z,47.72
2023-03-12T00:21:40.378Z,47.83
2023-03-12T00:24:08.277Z,48.04
2023-03-12T00:26:35.484Z,48.11
2023-03-12T00:29:02.401Z,48.10
2023-03-12T00:31:32.900Z,48.13
2023-03-12T00:34:01.509Z,48.33
2023-03-12T00:36:30.726Z,48.27
2023-03-12T00:38:59.146Z,48.36
2023-03-12T00:41:26.910Z,48.50
2023-03-12T00:43:53.815Z,48.60
2023-03-12T00:46:21.353Z,48.60
2023-03-12T00:48:48.458Z,48.99
2023-03-12T00:51:15.327Z,48.78
2023-03-12T00:53:42.333Z,48.73
2023-03-12T00:56:09.437Z,48.96
2023-03-12T00:58:36.381Z,49.09
2023-03-12T01:01:03.800Z,49.05
2023-03-12T01:03:30.739Z,49.16
2023-03-12T01:05:57.646Z,49.31
2023-03-12T01:08:25.154Z,49.34
2023-03-12T01:10:52.331Z,49.53
2023-03-12T01:13:19.543Z,49.50
2023-03-12T01:15:46.463Z,49.43
2023-03-12T01:18:13.271Z,49.47
2023-03-12T01:20:41.128Z,49.57
2023-03-12T01:23:09.119Z,49.56
2023-03-12T01:25:37.065Z,49.64
2023-03-12T01:28:04.709Z,49.92
2023-03-12T01:30:31.595Z,49.93
2023-03-12T01:32:58.961Z,49.99
2023-03-12T01:35:26.506Z,50.07
2023-03-12T01:37:53.509Z,50.21
2023-03-12T01:40:26.175Z,50.18
2023-03-12T01:42:57.727Z,50.47
2023-03-12T01:46:18.689Z,50.30
2023-03-12T01:48:53.792Z,50.60
2023-03-12T01:51:22.384Z,50.44
2023-03-12T01:53:54.313Z,50.58
2023-03-12T01:56:21.961Z,50.83
2023-03-12T01:58:53.005Z,50.69
2023-03-12T02:01:21.724Z,50.87
2023-03-12T02:03:53.872Z,51.10
2023-03-12T02:06:28.735Z,51.00
2023-03-12T02:08:57.086Z,51.11
2023-03-12T02:11:23.887Z,51.19
2023-03-12T02:13:50.986Z,51.33
2023-03-12T02:16:17.874Z,51.29
2023-03-12T02:18:46.923Z,51.46
2023-03-12T02:21:25.791Z,51.68
2023-03-12T02:24:19.499Z,51.75
2023-03-12T02:26:46.489Z,51.81
2023-03-12T02:29:13.850Z,52.08
2023-03-12T02:31:46.020Z,51.84
2023-03-12T02:34:12.931Z,52.02
2023-03-12T02:36:39.803Z,52.00
2023-03-12T02:39:07.119Z,52.06
2023-03-12T02:41:41.614Z,51.93
2023-03-12T02:44:14.431Z,51.99
2023-03-12T02:46:44.612Z,52.09
2023-03-12T02:49:13.359Z,51.86
2023-03-12T02:51:42.460Z,51.98
2023-03-12T02:54:11.220Z,52.28
2023-03-12T02:56:38.820Z,52.23
2023-03-12T02:59:06.582Z,52.30
2023-03-12T03:01:36.747Z,52.28
2023-03-12T03:04:05.768Z,52.24
2023-03-12T03:06:33.019Z,52.37
2023-03-12T03:09:00.025Z,52.48
2023-03-12T03:11:26.845Z,52.61
2023-03-12T03:13:54.943Z,52.55
2023-03-12T03:16:22.400Z,52.59
2023-03-12T03:18:49.345Z,52.53
2023-03-12T03:21:16.941Z,52.67
2023-03-12T03:23:45.688Z,52.92
2023-03-12T03:26:12.788Z,52.96
2023-03-12T03:28:40.028Z,53.11
2023-03-12T03:31:07.296Z,53.13
2023-03-12T03:33:36.400Z,53.27
2023-03-12T03:36:04.998Z,53.04
2023-03-12T03:38:32.806Z,53.30
2023-03-12T03:40:59.912Z,53.33
2023-03-12T03:43:27.367Z,53.42
2023-03-12T03:46:02.964Z,53.69
2023-03-12T03:48:30.613Z,53.49
2023-03-12T03:51:01.945Z,53.38
2023-03-12T03:53:28.818Z,53.46
2023-03-12T03:55:56.036Z,53.40
2023-03-12T03:58:23.144Z,53.44
2023-03-12T04:00:50.440Z,53.36
2023-03-12T04:03:17.364Z,53.40
2023-03-12T04:05:45.512Z,53.53
2023-03-12T04:08:13.666Z,53.79
2023-03-12T04:10:41.093Z,53.68
2023-03-12T04:13:08.030Z,53.72
2023-03-12T04:15:34.805Z,53.91
2023-03-12T04:18:01.779Z,53.95
2023-03-12T04:20:28.590Z,53.98
2023-03-12T04:22:55.484Z,54.19
2023-03-12T04:25:22.364Z,54.18
2023-03-12T04:27:49.289Z,54.14
2023-03-12T04:30:16.176Z,54.17
2023-03-12T04:32:43.040Z,54.13
2023-03-12T04:35:09.913Z,54.31
2023-03-12T04:37:36.698Z,54.40
2023-03-12T04:40:07.570Z,54.34
2023-03-12T04:42:35.658Z,54.32
2023-03-12T04:45:03.807Z,54.39
2023-03-12T04:47:31.844Z,54.45
2023-03-12T04:49:59.013Z,54.33
2023-03-12T04:52:27.035Z,54.40
2023-03-12T04:54:54.717Z,54.60
2023-03-12T04:57:21.688Z,54.62
2023-03-12T04:59:48.637Z,54.57
2023-03-12T05:02:15.587Z,54.48
2023-03-12T05:04:42.435Z,54.47
2023-03-12T05:07:09.283Z,54.54
2023-03-12T05:09:36.371Z,54.40
2023-03-12T05:12:03.204Z,54.42
2023-03-12T05:14:30.012Z,54.58
2023-03-12T05:16:56.844Z,54.89
2023-03-12T05:19:23.634Z,54.79
2023-03-12T05:21:50.547Z,54.88
2023-03-12T05:24:18.123Z,54.87
2023-03-12T05:26:44.951Z,55.03
2023-03-12T05:29:11.801Z,54.85
2023-03-12T05:31:38.644Z,54.93
2023-03-12T05:34:05.557Z,54.95
2023-03-12T05:36:32.465Z,54.81
2023-03-12T05:38:59.262Z,55.04
2023-03-12T05:41:28.636Z,55.03
2023-03-12T05:43:57.441Z,54.88
2023-03-12T05:46:25.841Z,55.12
2023-03-12T05:48:53.181Z,55.08
2023-03-12T05:51:20.802Z,54.93
2023-03-12T05:53:47.900Z,54.96
2023-03-12T05:56:16.599Z,55.00
2023-03-12T05:58:44.023Z,54.79
2023-03-12T06:01:19.427Z,55.06
2023-03-12T06:03:46.937Z,55.07
2023-03-12T06:06:14.460Z,55.33
2023-03-12T06:08:42.549Z,55.09
2023-03-12T06:11:09.949Z,55.18
2023-03-12T06:13:36.778Z,55.46
2023-03-12T06:16:15.548Z,55.44
2023-03-12T06:18:42.369Z,55.31
2023-03-12T06:21:18.434Z,55.10
2023-03-12T06:23:46.203Z,55.07
2023-03-12T06:26:13.662Z,55.10
2023-03-12T06:28:40.975Z,54.88
2023-03-12T06:31:08.670Z,54.69
2023-03-12T06:33:35.938Z,54.60
2023-03-12T06:36:05.152Z,54.60
2023-03-12T06:38:32.509Z,54.68
2023-03-12T06:41:02.269Z,54.76
2023-03-12T06:43:31.386Z,54.53
2023-03-12T06:46:00.113Z,54.45
2023-03-12T06:48:28.791Z,54.40
2023-03-12T06:50:56.010Z,54.29
2023-03-12T06:53:25.355Z,54.16
2023-03-12T06:55:52.283Z,54.32
2023-03-12T06:58:19.452Z,54.02
2023-03-12T07:00:46.253Z,53.99
2023-03-12T07:03:13.153Z,54.06
2023-03-12T07:05:40.285Z,54.23
2023-03-12T07:08:07.131Z,54.05
2023-03-12T07:10:34.015Z,54.26
2023-03-12T07:13:00.933Z,54.30
2023-03-12T07:15:27.810Z,54.19
2023-03-12T07:17:54.633Z,54.04
2023-03-12T07:20:21.554Z,54.09
2023-03-12T07:22:48.486Z,54.13
2023-03-12T07:25:17.286Z,54.16
2023-03-12T07:27:45.403Z,54.10
2023-03-12T07:30:12.591Z,53.96
2023-03-12T07:32:39.509Z,53.98
2023-03-12T07:35:06.780Z,54.14
2023-03-12T07:37:33.553Z,54.14
2023-03-12T07:40:00.464Z,54.15
2023-03-12T07:42:27.359Z,54.10
2023-03-12T07:44:54.212Z,54.02
2023-03-12T07:47:24.372Z,53.99
2023-03-12T07:49:51.991Z,53.93
2023-03-12T07:52:20.326Z,53.90
2023-03-12T07:54:47.887Z,53.92
2023-03-12T07:57:15.072Z,54.04
2023-03-12T07:59:42.122Z,54.19
2023-03-12T08:02:10.850Z,54.11
2023-03-12T08:04:37.878Z,54.08
2023-03-12T08:07:07.372Z,54.08
2023-03-12T08:09:38.700Z,54.06
2023-03-12T08:12:08.593Z,53.95
2023-03-12T08:14:35.945Z,53.84
2023-03-12T08:17:03.005Z,53.89
2023-03-12T08:19:29.822Z,53.70
2023-03-12T08:21:58.100Z,53.58
2023-03-12T08:24:25.157Z,53.44
2023-03-12T08:26:52.033Z,53.55
2023-03-12T08:29:18.933Z,53.58
2023-03-12T08:32:03.437Z,53.36
2023-03-12T08:34:31.142Z,53.25
2023-03-12T08:36:57.943Z,53.16
2023-03-12T08:39:24.814Z,53.13
2023-03-12T08:41:55.484Z,52.96
2023-03-12T08:44:26.275Z,52.84
2023-03-12T08:46:53.438Z,52.67
2023-03-12T08:49:21.519Z,52.66
2023-03-12T08:51:48.551Z,52.63
2023-03-12T08:54:15.526Z,52.55
2023-03-12T08:56:43.689Z,52.38
2023-03-12T08:59:11.654Z,52.30
2023-03-12T09:01:38.752Z,52.27
2023-03-12T09:04:06.343Z,52.30
2023-03-12T09:06:35.416Z,52.18
2023-03-12T09:09:05.154Z,52.17
2023-03-12T09:11:33.493Z,52.12
2023-03-12T09:16:48.243Z,51.98
2023-03-12T09:19:15.856Z,51.94
2023-03-12T09:21:42.728Z,51.96
2023-03-12T09:24:10.436Z,51.91
2023-03-12T09:26:37.246Z,51.69
2023-03-12T09:29:04.248Z,51.58
2023-03-12T09:31:31.617Z,51.47
2023-03-12T09:33:58.536Z,51.33
2023-03-12T09:36:25.347Z,51.36
2023-03-12T09:38:52.152Z,51.24
2023-03-12T09:41:27.091Z,51.00
2023-03-12T09:44:02.480Z,50.77
2023-03-12T09:46:43.402Z,50.70
2023-03-12T09:49:23.172Z,50.54
2023-03-12T09:51:55.552Z,50.44
2023-03-12T09:54:53.821Z,50.33
2023-03-12T09:57:24.607Z,50.27
2023-03-12T09:59:53.055Z,50.26
2023-03-12T10:02:49.144Z,50.24
2023-03-12T10:05:42.233Z,50.10
2023-03-12T10:08:28.255Z,50.03
2023-03-12T10:11:08.089Z,50.01
2023-03-12T10:13:37.595Z,49.99
2023-03-12T10:16:07.470Z,49.95
2023-03-12T10:18:58.972Z,49.85
2023-03-12T10:21:39.898Z,49.78
2023-03-12T10:24:29.032Z,49.78
2023-03-12T10:26:58.359Z,49.70
2023-03-12T10:29:30.435Z,49.62
2023-03-12T10:32:05.984Z,49.58
2023-03-12T10:34:44.700Z,49.56
2023-03-12T10:37:37.299Z,49.67
2023-03-12T10:40:06.115Z,49.51
2023-03-12T10:42:33.276Z,49.34
2023-03-12T10:45:05.970Z,49.29
2023-03-12T10:47:43.664Z,49.31
2023-03-12T10:50:16.689Z,49.37
2023-03-12T10:52:44.350Z,49.47
2023-03-12T10:55:20.615Z,49.48
2023-03-12T10:57:48.274Z,49.54
2023-03-12T11:00:27.169Z,49.45
2023-03-12T11:03:19.043Z,49.36
2023-03-12T11:05:49.181Z,49.37
2023-03-12T11:08:33.611Z,49.24
2023-03-12T11:11:02.735Z,49.29
2023-03-12T11:14:19.331Z,49.36
2023-03-12T11:16:46.381Z,49.32
2023-03-12T11:19:25.800Z,49.29
2023-03-12T11:22:01.950Z,49.40
2023-03-12T11:24:58.090Z,49.30
2023-03-12T11:27:41.057Z,49.30
2023-03-12T11:30:15.455Z,49.26
2023-03-12T11:33:09.812Z,49.24
2023-03-12T11:36:06.338Z,49.24
2023-03-12T11:39:23.687Z,49.22
2023-03-12T11:42:20.780Z,49.14
2023-03-12T11:45:36.133Z,49.19
2023-03-12T11:48:33.219Z,49.14
2023-03-12T11:51:17.485Z,49.13
2023-03-12T11:53:58.322Z,49.12
2023-03-12T11:56:36.010Z,49.00
2023-03-12T11:59:27.751Z,48.90
2023-03-12T12:01:57.314Z,48.87
2023-03-12T12:05:01.701Z,48.83
2023-03-12T12:07:53.138Z,48.86
2023-03-12T12:10:26.486Z,48.84
2023-03-12T12:13:10.836Z,48.77
2023-03-12T12:16:07.965Z,48.64
2023-03-12T12:18:44.185Z,48.34
2023-03-12T12:21:23.199Z,48.25
2023-03-12T12:23:58.646Z,48.29
2023-03-12T12:26:54.841Z,48.27
2023-03-12T12:29:51.510Z,48.35
2023-03-12T12:32:30.362Z,48.39
2023-03-12T12:34:57.349Z,48.15
2023-03-12T12:37:46.858Z,48.31
2023-03-12T12:40:16.776Z,48.28
2023-03-12T12:43:04.367Z,48.33
2023-03-12T12:45:31.483Z,48.27
2023-03-12T12:48:06.620Z,48.15
2023-03-12T12:50:38.600Z,48.10
2023-03-12T12:53:26.771Z,47.94
2023-03-12T12:56:15.407Z,47.84
2023-03-12T12:59:01.873Z,47.79
2023-03-12T13:01:30.666Z,47.76
2023-03-12T13:07:28.114Z,47.47
2023-03-12T13:09:59.288Z,47.36
2023-03-12T13:12:50.447Z,47.35
2023-03-12T13:15:29.322Z,47.28
2023-03-12T13:18:29.781Z,47.14
2023-03-12T13:21:40.621Z,47.13
2023-03-12T13:24:33.217Z,46.66
2023-03-12T13:27:39.879Z,46.50
2023-03-12T13:30:46.182Z,46.40
2023-03-12T13:33:16.863Z,46.28
2023-03-12T13:36:14.024Z,46.30
2023-03-12T13:38:58.968Z,46.23
2023-03-12T13:41:42.189Z,46.21
2023-03-12T13:44:27.895Z,46.10
2023-03-12T13:47:11.186Z,46.04
2023-03-12T13:49:48.019Z,45.92
2023-03-12T13:52:19.899Z,45.99
2023-03-12T13:54:51.450Z,46.08
2023-03-12T13:57:39.143Z,46.05
2023-03-12T14:00:13.144Z,45.98
2023-03-12T14:02:49.114Z,45.80
2023-03-12T14:05:18.499Z,45.83
2023-03-12T14:08:22.395Z,45.54
2023-03-12T14:11:05.418Z,45.43
2023-03-12T14:13:42.677Z,45.43
2023-03-12T14:16:19.299Z,45.66
2023-03-12T14:18:47.431Z,45.62
2023-03-12T14:25:02.307Z,45.76
2023-03-12T14:27:35.121Z,45.69
2023-03-12T14:30:31.045Z,45.65
2023-03-12T14:33:05.840Z,45.63
2023-03-12T14:35:38.950Z,45.69
2023-03-12T14:38:35.138Z,45.64
2023-03-12T14:41:06.398Z,45.49
2023-03-12T14:43:51.599Z,45.34
2023-03-12T14:46:21.608Z,45.74
2023-03-12T14:48:53.535Z,45.83
2023-03-12T14:51:30.124Z,45.98
2023-03-12T14:54:02.650Z,46.05
2023-03-12T14:56:35.990Z,46.13
2023-03-12T14:59:38.020Z,46.26
2023-03-12T15:02:14.965Z,46.29
2023-03-12T15:04:42.641Z,46.34
2023-03-12T15:07:17.700Z,46.42
2023-03-12T15:09:50.924Z,46.39
2023-03-12T15:12:47.706Z,46.35
2023-03-12T15:15:43.420Z,46.23
2023-03-12T15:18:22.918Z,46.48
2023-03-12T15:20:53.771Z,46.49
2023-03-12T15:23:23.408Z,46.59
2023-03-12T15:26:13.715Z,46.59
2023-03-12T15:28:41.244Z,46.31
2023-03-12T15:31:14.776Z,46.66
2023-03-12T15:33:44.595Z,46.92
2023-03-12T15:36:17.658Z,46.82
2023-03-12T15:38:47.758Z,46.84
2023-03-12T15:41:46.034Z,46.80
2023-03-12T15:44:28.364Z,46.88
2023-03-12T15:47:05.098Z,46.96
2023-03-12T15:49:36.252Z,47.05
2023-03-12T15:52:19.247Z,46.70
2023-03-12T15:55:08.958Z,46.09
2023-03-12T15:57:47.123Z,45.89
2023-03-12T16:00:24.245Z,46.28
2023-03-12T16:02:57.189Z,45.98
2023-03-12T16:05:36.686Z,45.51
2023-03-12T16:08:26.099Z,45.61
2023-03-12T16:10:53.780Z,45.63
2023-03-12T16:13:28.427Z,45.64
2023-03-12T16:15:55.663Z,45.01
2023-03-12T16:18:23.847Z,45.14
2023-03-12T16:20:53.968Z,45.31
2023-03-12T16:23:21.514Z,45.44
2023-03-12T16:25:54.340Z,45.75
2023-03-12T16:28:23.708Z,45.87
2023-03-12T16:30:51.778Z,45.94
2023-03-12T16:33:22.474Z,45.98
2023-03-12T16:35:50.747Z,46.20
2023-03-12T16:38:17.972Z,46.25
2023-03-12T16:40:49.395Z,46.36
2023-03-12T16:43:27.292Z,46.42
2023-03-12T16:45:54.499Z,46.73
2023-03-12T16:48:24.657Z,46.87
2023-03-12T16:50:55.898Z,47.06
2023-03-12T16:53:25.384Z,47.13
2023-03-12T16:55:56.742Z,47.05
2023-03-12T16:58:26.179Z,47.35
2023-03-12T17:00:54.997Z,47.50
2023-03-12T17:03:32.347Z,47.62
2023-03-12T17:06:01.730Z,47.68
2023-03-12T17:08:29.187Z,47.55
2023-03-12T17:10:57.768Z,47.85
2023-03-12T17:13:28.045Z,47.78
2023-03-12T17:15:56.685Z,47.72
2023-03-12T17:18:25.720Z,47.90
2023-03-12T17:20:53.472Z,48.04
2023-03-12T17:23:21.204Z,47.85
2023-03-12T17:25:48.789Z,47.73
2023-03-12T17:28:16.825Z,47.83
2023-03-12T17:30:44.258Z,48.20
2023-03-12T17:33:15.278Z,48.02
2023-03-12T17:35:43.809Z,48.07
2023-03-12T17:38:12.872Z,47.95
2023-03-12T17:40:43.829Z,48.21
2023-03-12T17:43:11.250Z,48.28
2023-03-12T17:45:39.173Z,48.17
2023-03-12T17:48:07.169Z,48.44
2023-03-12T17:50:35.104Z,48.15
2023-03-12T17:53:03.025Z,47.96
2023-03-12T17:55:30.938Z,48.28
2023-03-12T17:57:59.329Z,48.49
2023-03-12T18:00:27.155Z,48.34
2023-03-12T18:02:55.305Z,48.62
2023-03-12T18:05:23.096Z,48.34
2023-03-12T18:07:51.644Z,48.59
2023-03-12T18:10:20.000Z,48.61
2023-03-12T18:12:47.714Z,48.64
2023-03-12T18:15:16.962Z,48.84
2023-03-12T18:17:45.651Z,48.75
2023-03-12T18:20:28.684Z,48.80
2023-03-12T18:23:00.329Z,48.88
2023-03-12T18:25:28.061Z,49.03
2023-03-12T18:27:56.744Z,48.89
2023-03-12T18:30:24.734Z,49.17
2023-03-12T18:32:52.768Z,49.27
2023-03-12T18:35:23.220Z,49.02
2023-03-12T18:37:52.491Z,49.31
2023-03-12T18:40:20.376Z,49.33
2023-03-12T18:42:50.256Z,49.32
2023-03-12T18:45:20.260Z,49.50
2023-03-12T18:47:50.920Z,49.46
2023-03-12T18:50:18.894Z,49.59
2023-03-12T18:52:47.995Z,49.54
2023-03-12T18:55:15.944Z,49.12
2023-03-12T18:57:44.338Z,49.24
2023-03-12T19:00:15.307Z,49.33
2023-03-12T19:02:46.501Z,49.42
2023-03-12T19:05:15.237Z,49.41
2023-03-12T19:07:43.631Z,49.39
2023-03-12T19:10:12.263Z,49.25
2023-03-12T19:12:51.501Z,49.18
2023-03-12T19:15:24.557Z,49.42
2023-03-12T19:17:52.844Z,49.40
2023-03-12T19:20:22.170Z,49.33
2023-03-12T19:22:51.099Z,49.21
2023-03-12T19:25:19.046Z,49.29
2023-03-12T19:27:47.058Z,49.35
2023-03-12T19:30:15.033Z,49.45
2023-03-12T19:32:44.529Z,49.23
2023-03-12T19:35:14.945Z,49.45
2023-03-12T19:37:43.145Z,49.61
2023-03-12T19:40:11.684Z,49.33
2023-03-12T19:42:39.292Z,49.25
2023-03-12T19:45:07.411Z,49.30
2023-03-12T19:47:35.347Z,49.21
2023-03-12T19:50:03.708Z,49.41
2023-03-12T19:52:32.311Z,49.61
2023-03-12T19:55:05.146Z,49.41
2023-03-12T19:57:34.416Z,49.35
2023-03-12T20:00:02.156Z,49.48
2023-03-12T20:02:30.095Z,49.35
2023-03-12T20:04:58.778Z,49.32
2023-03-12T20:07:29.343Z,49.41
2023-03-12T20:09:57.464Z,49.69
2023-03-12T20:12:26.101Z,49.58
2023-03-12T20:14:55.332Z,49.59
2023-03-12T20:17:24.228Z,49.62
2023-03-12T20:19:52.223Z,49.68
2023-03-12T20:22:19.864Z,49.49
2023-03-12T20:24:47.376Z,49.79
2023-03-12T20:27:15.103Z,49.73
2023-03-12T20:29:44.161Z,49.87
2023-03-12T20:32:15.240Z,49.87
2023-03-12T20:34:43.405Z,49.82
2023-03-12T20:37:13.449Z,49.69
2023-03-12T20:39:42.387Z,49.82
2023-03-12T20:42:10.244Z,50.03
2023-03-12T20:44:37.728Z,49.82
2023-03-12T20:47:05.646Z,49.77
2023-03-12T20:49:34.534Z,49.89
2023-03-12T20:52:02.424Z,49.80
2023-03-12T20:54:31.332Z,49.86
2023-03-12T20:56:59.490Z,49.87
2023-03-12T20:59:27.397Z,49.95
2023-03-12T21:01:55.595Z,50.08
2023-03-12T21:04:24.605Z,49.88
2023-03-12T21:06:52.571Z,49.79
2023-03-12T21:09:23.610Z,49.98
2023-03-12T21:11:51.083Z,50.05
2023-03-12T21:14:18.363Z,49.86
2023-03-12T21:16:45.811Z,49.85
2023-03-12T21:19:13.259Z,49.67
2023-03-12T21:21:40.484Z,49.91
2023-03-12T21:24:08.983Z,49.83
2023-03-12T21:26:36.065Z,49.91
2023-03-12T21:29:03.604Z,49.97
2023-03-12T21:31:30.969Z,49.87
2023-03-12T21:33:59.667Z,49.97
2023-03-12T21:36:26.837Z,50.19
2023-03-12T21:38:54.329Z,50.00
2023-03-12T21:41:22.266Z,49.96
2023-03-12T21:43:49.284Z,49.88
2023-03-12T21:46:19.887Z,49.88
2023-03-12T21:48:48.252Z,49.89
2023-03-12T21:51:17.249Z,49.97
2023-03-12T21:53:44.129Z,50.00
2023-03-12T21:56:11.558Z,50.00
2023-03-12T21:58:38.522Z,50.04
2023-03-12T22:01:23.549Z,50.04
2023-03-12T22:03:50.653Z,50.07
2023-03-12T22:06:17.556Z,49.83
2023-03-12T22:08:47.073Z,49.92
2023-03-12T22:11:14.931Z,49.98
2023-03-12T22:13:42.249Z,49.99
2023-03-12T22:16:09.623Z,50.00
2023-03-12T22:18:42.089Z,49.99
2023-03-12T22:21:14.533Z,50.03
2023-03-12T22:23:41.356Z,50.24
2023-03-12T22:26:08.587Z,50.00
2023-03-12T22:28:35.853Z,49.85
2023-03-12T22:31:05.454Z,50.09
2023-03-12T22:33:33.841Z,50.01
2023-03-12T22:36:03.961Z,50.03
2023-03-12T22:38:30.808Z,50.05
2023-03-12T22:40:57.585Z,50.00
2023-03-12T22:43:27.680Z,50.10
2023-03-12T22:45:54.758Z,50.04
2023-03-12T22:48:21.589Z,50.19
2023-03-12T22:50:54.395Z,50.07
2023-03-12T22:53:21.497Z,49.93
2023-03-12T22:55:56.708Z,49.93
2023-03-12T22:58:23.559Z,49.80
2023-03-12T23:00:50.401Z,49.89
2023-03-12T23:03:17.222Z,49.92
2023-03-12T23:05:44.025Z,49.98
2023-03-12T23:08:10.852Z,49.95
2023-03-12T23:10:37.648Z,49.91
2023-03-12T23:13:04.507Z,50.02
2023-03-12T23:15:40.461Z,50.05
2023-03-12T23:18:08.424Z,49.91
2023-03-12T23:20:35.185Z,50.03
2023-03-12T23:23:01.996Z,50.17
2023-03-12T23:25:28.807Z,50.46
2023-03-12T23:27:55.657Z,50.35
2023-03-12T23:30:22.502Z,50.48
2023-03-12T23:32:49.450Z,50.56
2023-03-12T23:35:16.294Z,50.37
2023-03-12T23:37:43.113Z,50.51
2023-03-12T23:40:11.310Z,50.37
2023-03-12T23:42:38.120Z,50.45
2023-03-12T23:45:05.498Z,50.54
2023-03-12T23:47:32.299Z,50.48
2023-03-12T23:49:59.118Z,50.42
2023-03-12T23:52:26.920Z,50.60
2023-03-12T23:54:53.737Z,50.59
2023-03-12T23:57:20.561Z,50.69
2023-03-12T23:59:47.475Z,50.85
